Time;durP1;ratioP1;P1;durP2;ratioP2;P2;SDS_P1;SDS_P2;PMS_P1;PMS_P2;Temp;Humidity;BMP_temperature;BMP_pressure;BME280_temperature;BME280_humidity;BME280_pressure;Samples;Min_cycle;Max_cycle;Signal;HPM_P1;HPM_P2
2022/09/16 00:01:12;;;;;;;7.00;6.30;;;18.00;99.90;;;;;;4999519;28;20215;-67
2022/09/16 00:03:38;;;;;;;6.60;5.63;;;18.00;99.90;;;;;;4996067;28;20760;-65
2022/09/16 00:06:04;;;;;;;8.20;5.80;;;18.00;99.90;;;;;;4996635;28;20515;-66
2022/09/16 00:08:30;;;;;;;8.87;5.73;;;18.00;99.90;;;;;;4995824;28;20187;-66
2022/09/16 00:11:00;;;;;;;7.70;6.07;;;18.00;99.90;;;;;;5000372;28;20412;-66
2022/09/16 00:13:26;;;;;;;6.37;5.77;;;18.00;99.90;;;;;;4995257;28;20536;-66
2022/09/16 00:15:51;;;;;;;7.30;5.23;;;18.00;99.90;;;;;;4997796;28;20562;-67
2022/09/16 00:18:19;;;;;;;6.10;5.30;;;18.00;99.90;;;;;;4997497;28;20535;-67
2022/09/16 00:20:47;;;;;;;8.20;6.37;;;18.00;99.90;;;;;;4992891;28;20197;-66
2022/09/16 00:23:13;;;;;;;6.27;5.50;;;18.00;99.90;;;;;;4998582;28;20764;-67
2022/09/16 00:25:39;;;;;;;8.00;6.00;;;18.00;99.90;;;;;;4994040;28;20448;-67
2022/09/16 00:28:04;;;;;;;6.73;5.53;;;17.90;99.90;;;;;;4997688;28;20650;-67
2022/09/16 00:30:30;;;;;;;6.17;5.57;;;17.90;99.90;;;;;;4977303;28;20645;-67
2022/09/16 00:32:55;;;;;;;6.40;5.20;;;17.90;99.90;;;;;;4995388;28;20235;-67
2022/09/16 00:35:21;;;;;;;7.20;5.97;;;17.80;99.90;;;;;;4979956;28;21084;-67
2022/09/16 00:37:47;;;;;;;7.63;6.87;;;17.90;99.90;;;;;;4997428;28;20592;-67
2022/09/16 00:40:13;;;;;;;11.27;5.93;;;17.90;99.90;;;;;;4994278;28;20466;-67
2022/09/16 00:42:39;;;;;;;6.87;6.17;;;17.90;99.90;;;;;;4997562;28;20185;-67
2022/09/16 00:45:17;;;;;;;7.23;6.53;;;17.90;99.90;;;;;;4996188;28;20209;-67
2022/09/16 00:47:54;;;;;;;10.00;6.27;;;17.80;99.90;;;;;;4994571;28;20795;-67
2022/09/16 00:50:28;;;;;;;7.00;6.10;;;17.80;99.90;;;;;;4992527;28;20454;-67
2022/09/16 00:52:55;;;;;;;14.23;6.87;;;17.80;99.90;;;;;;4998246;28;20424;-67
2022/09/16 00:55:29;;;;;;;7.87;5.70;;;17.80;99.90;;;;;;4995371;28;20432;-67
2022/09/16 00:58:03;;;;;;;11.00;7.17;;;17.80;99.90;;;;;;4997201;28;20913;-66
2022/09/16 01:00:30;;;;;;;9.50;6.27;;;17.80;99.90;;;;;;5001553;28;20428;-66
2022/09/16 01:02:55;;;;;;;7.00;5.90;;;17.80;99.90;;;;;;5004180;28;20439;-66
2022/09/16 01:05:24;;;;;;;11.80;6.43;;;17.80;99.90;;;;;;4999487;28;20440;-66
2022/09/16 01:07:52;;;;;;;8.17;6.80;;;17.70;99.90;;;;;;4982113;28;20602;-66
2022/09/16 01:10:23;;;;;;;9.93;8.00;;;17.70;99.90;;;;;;4983186;28;20848;-66
2022/09/16 01:12:54;;;;;;;8.33;6.90;;;17.70;99.90;;;;;;5001421;28;20515;-66
2022/09/16 01:15:24;;;;;;;8.60;6.67;;;17.70;99.90;;;;;;4995783;28;20502;-68
2022/09/16 01:18:01;;;;;;;13.70;7.83;;;17.70;99.90;;;;;;5002578;28;20867;-66
2022/09/16 01:21:03;;;;;;;11.20;6.87;;;17.70;99.90;;;;;;5002331;28;20412;-66
2022/09/16 01:23:48;;;;;;;17.60;7.83;;;17.70;99.90;;;;;;4999550;28;20435;-66
2022/09/16 01:26:43;;;;;;;11.57;8.00;;;17.60;99.90;;;;;;4998452;28;20436;-66
2022/09/16 01:29:33;;;;;;;8.17;6.80;;;17.60;99.90;;;;;;4999152;28;20413;-66
2022/09/16 01:32:22;;;;;;;12.83;7.70;;;17.60;99.90;;;;;;4996744;28;20435;-66
2022/09/16 01:34:47;;;;;;;7.90;6.67;;;17.60;99.90;;;;;;4996692;28;20865;-66
2022/09/16 01:37:33;;;;;;;7.80;7.10;;;17.60;99.90;;;;;;4998629;28;20408;-66
2022/09/16 01:40:09;;;;;;;8.77;7.83;;;17.50;99.90;;;;;;4981906;28;20596;-66
2022/09/16 01:43:02;;;;;;;9.20;7.70;;;17.50;99.90;;;;;;4999315;28;20475;-66
2022/09/16 01:45:40;;;;;;;11.97;7.97;;;17.50;99.90;;;;;;4980357;28;20443;-66
2022/09/16 01:48:09;;;;;;;7.57;6.73;;;17.50;99.90;;;;;;4999264;28;20504;-66
2022/09/16 01:50:49;;;;;;;7.47;6.77;;;17.50;99.90;;;;;;5000812;28;20520;-66
2022/09/16 01:53:23;;;;;;;9.80;8.57;;;17.50;99.90;;;;;;4997201;28;20424;-65
2022/09/16 01:56:20;;;;;;;8.97;8.03;;;17.50;99.90;;;;;;4999727;28;20427;-67
2022/09/16 01:58:52;;;;;;;9.93;7.47;;;17.50;99.90;;;;;;4978103;28;20424;-65
2022/09/16 02:01:24;;;;;;;7.53;6.73;;;17.40;99.90;;;;;;5000678;28;20470;-66
2022/09/16 02:03:57;;;;;;;10.07;7.40;;;17.40;99.90;;;;;;5000934;28;20420;-66
2022/09/16 02:06:25;;;;;;;13.43;8.20;;;17.30;99.90;;;;;;4997491;28;20445;-66
2022/09/16 02:09:01;;;;;;;11.73;7.30;;;17.30;99.90;;;;;;4999958;28;20458;-66
2022/09/16 02:11:27;;;;;;;12.33;7.40;;;17.30;99.90;;;;;;4996980;28;20416;-66
2022/09/16 02:14:08;;;;;;;7.57;6.50;;;17.20;99.90;;;;;;4997655;28;20458;-67
2022/09/16 02:16:38;;;;;;;9.03;7.70;;;17.20;99.90;;;;;;4995119;28;20618;-66
2022/09/16 02:19:14;;;;;;;7.87;7.07;;;17.30;99.90;;;;;;4997594;28;20451;-66
2022/09/16 02:21:41;;;;;;;11.43;6.93;;;17.40;99.90;;;;;;4999016;28;20488;-66
2022/09/16 02:24:15;;;;;;;10.33;7.60;;;17.40;99.90;;;;;;4998145;28;20445;-66
2022/09/16 02:26:59;;;;;;;8.00;6.57;;;17.40;99.90;;;;;;5001975;28;20784;-66
2022/09/16 02:29:30;;;;;;;10.83;7.53;;;17.40;99.90;;;;;;4998985;28;20404;-66
2022/09/16 02:31:59;;;;;;;9.03;6.83;;;17.40;99.90;;;;;;4987094;28;20420;-67
2022/09/16 02:34:49;;;;;;;16.50;7.40;;;17.40;99.90;;;;;;4998750;28;20443;-66
2022/09/16 02:37:23;;;;;;;14.23;7.50;;;17.40;99.90;;;;;;4997625;28;20409;-66
2022/09/16 02:39:53;;;;;;;9.40;7.33;;;17.40;99.90;;;;;;4998427;28;20426;-66
2022/09/16 02:42:19;;;;;;;8.00;7.30;;;17.40;99.90;;;;;;4980021;28;20464;-66
2022/09/16 02:44:46;;;;;;;9.20;6.70;;;17.40;99.90;;;;;;4999394;28;20447;-66
2022/09/16 02:47:30;;;;;;;8.37;7.57;;;17.40;99.90;;;;;;4999880;28;20474;-66
2022/09/16 02:50:07;;;;;;;11.40;7.93;;;17.40;99.90;;;;;;4997568;28;20432;-66
2022/09/16 02:52:56;;;;;;;9.33;7.53;;;17.40;99.90;;;;;;4999344;28;20426;-66
2022/09/16 02:55:24;;;;;;;8.57;6.70;;;17.30;99.90;;;;;;4997475;28;20784;-66
2022/09/16 02:57:50;;;;;;;10.57;6.87;;;17.30;99.90;;;;;;4980613;28;20436;-66
2022/09/16 03:00:16;;;;;;;9.37;7.73;;;17.30;99.90;;;;;;4999319;28;21014;-66
2022/09/16 03:02:42;;;;;;;16.40;7.97;;;17.30;99.90;;;;;;5001347;28;20914;-66
2022/09/16 03:05:08;;;;;;;10.03;8.30;;;17.30;99.90;;;;;;4998536;28;20440;-66
2022/09/16 03:07:35;;;;;;;8.43;7.13;;;17.30;99.90;;;;;;4996960;28;21041;-66
2022/09/16 03:10:01;;;;;;;10.10;7.67;;;17.30;99.90;;;;;;5000000;28;20841;-66
2022/09/16 03:12:55;;;;;;;8.43;7.07;;;17.30;99.90;;;;;;4995677;28;20515;-66
2022/09/16 03:15:33;;;;;;;7.40;6.80;;;17.30;99.90;;;;;;4994883;28;20448;-66
2022/09/16 03:18:26;;;;;;;8.70;7.80;;;17.40;99.90;;;;;;4993443;28;20448;-66
2022/09/16 03:21:18;;;;;;;10.27;8.50;;;17.40;99.90;;;;;;4997654;28;20494;-66
2022/09/16 03:24:07;;;;;;;8.77;7.87;;;17.40;99.90;;;;;;4998892;28;20424;-66
2022/09/16 03:26:56;;;;;;;11.83;7.60;;;17.30;99.90;;;;;;4997591;28;20416;-66
2022/09/16 03:29:26;;;;;;;15.17;8.53;;;17.30;99.90;;;;;;4996831;28;20823;-66
2022/09/16 03:32:20;;;;;;;15.03;10.07;;;17.40;99.90;;;;;;4995938;28;20948;-66
2022/09/16 03:34:59;;;;;;;8.10;7.10;;;17.40;99.90;;;;;;4997530;28;20464;-66
2022/09/16 03:37:29;;;;;;;9.43;7.93;;;17.40;99.90;;;;;;4996076;28;20422;-66
2022/09/16 03:39:58;;;;;;;10.63;7.93;;;17.40;99.90;;;;;;4998067;28;20622;-67
2022/09/16 03:42:24;;;;;;;9.77;7.63;;;17.40;99.90;;;;;;4994870;28;20584;-67
2022/09/16 03:44:50;;;;;;;10.43;8.53;;;17.40;99.90;;;;;;4995842;28;20452;-67
2022/09/16 03:47:16;;;;;;;8.73;7.87;;;17.50;99.90;;;;;;4997846;28;20196;-67
2022/09/16 03:49:42;;;;;;;12.07;8.17;;;17.30;99.90;;;;;;4995974;28;20421;-67
2022/09/16 03:52:08;;;;;;;9.83;8.40;;;17.40;99.90;;;;;;5000001;28;20450;-67
2022/09/16 03:54:35;;;;;;;10.33;8.13;;;17.40;99.90;;;;;;4994071;28;20244;-66
2022/09/16 03:57:01;;;;;;;9.83;8.83;;;17.40;99.90;;;;;;4997743;28;20432;-66
2022/09/16 03:59:27;;;;;;;13.50;9.40;;;17.40;99.90;;;;;;4999381;28;20420;-66
2022/09/16 04:01:53;;;;;;;11.67;9.67;;;17.40;99.90;;;;;;4994672;28;20621;-66
2022/09/16 04:04:18;;;;;;;14.53;8.63;;;17.40;99.90;;;;;;4996154;28;20436;-65
2022/09/16 04:06:44;;;;;;;9.93;8.50;;;17.40;99.90;;;;;;4997225;28;20181;-66
2022/09/16 04:09:11;;;;;;;10.07;7.93;;;17.50;99.90;;;;;;4997467;28;20187;-66
2022/09/16 04:11:38;;;;;;;9.33;7.97;;;17.50;99.90;;;;;;4993293;28;20186;-66
2022/09/16 04:14:04;;;;;;;10.40;8.47;;;17.50;99.90;;;;;;4995145;28;20483;-67
2022/09/16 04:16:30;;;;;;;10.40;8.20;;;17.50;99.90;;;;;;4993614;28;20491;-67
2022/09/16 04:18:56;;;;;;;11.27;8.53;;;17.50;99.90;;;;;;4993270;28;20459;-67
2022/09/16 04:21:22;;;;;;;11.27;7.73;;;17.60;99.90;;;;;;4996932;28;20678;-66
2022/09/16 04:23:48;;;;;;;9.90;8.00;;;17.50;99.90;;;;;;4998981;28;20173;-67
2022/09/16 04:26:15;;;;;;;11.80;8.30;;;17.60;99.90;;;;;;4996758;28;20976;-66
2022/09/16 04:28:40;;;;;;;9.80;7.73;;;17.60;99.90;;;;;;4997046;28;20418;-67
2022/09/16 04:31:10;;;;;;;9.57;6.80;;;17.60;99.90;;;;;;4999072;28;20431;-67
2022/09/16 04:33:37;;;;;;;9.60;7.30;;;17.60;99.90;;;;;;4998644;28;20185;-67
2022/09/16 04:36:02;;;;;;;9.10;7.07;;;17.60;99.90;;;;;;4977431;28;20898;-65
2022/09/16 04:38:28;;;;;;;9.50;7.97;;;17.60;99.90;;;;;;4996578;28;20519;-65
2022/09/16 04:41:03;;;;;;;7.17;6.47;;;17.60;99.90;;;;;;4994508;28;20211;-66
2022/09/16 04:43:28;;;;;;;9.93;6.50;;;17.60;99.90;;;;;;4997948;28;20210;-65
2022/09/16 04:45:54;;;;;;;8.00;6.63;;;17.60;99.90;;;;;;4997972;28;20872;-66
2022/09/16 04:48:20;;;;;;;7.20;6.47;;;17.60;99.90;;;;;;4997120;28;20264;-66
2022/09/16 04:50:45;;;;;;;9.23;6.50;;;17.60;99.90;;;;;;5003184;28;20424;-66
2022/09/16 04:53:11;;;;;;;11.77;7.70;;;17.60;99.90;;;;;;4994783;28;20566;-66
2022/09/16 04:55:36;;;;;;;11.07;7.33;;;17.60;99.90;;;;;;4995610;28;20577;-66
2022/09/16 04:58:02;;;;;;;9.40;7.03;;;17.60;99.90;;;;;;4976769;28;20174;-66
2022/09/16 05:00:28;;;;;;;8.20;7.07;;;17.60;99.90;;;;;;4999419;28;20181;-66
2022/09/16 05:02:54;;;;;;;9.83;7.03;;;17.50;99.90;;;;;;4999746;28;20551;-66
2022/09/16 05:05:20;;;;;;;15.33;6.90;;;17.50;99.90;;;;;;4994133;28;20235;-66
2022/09/16 05:07:46;;;;;;;8.83;6.33;;;17.50;99.90;;;;;;4994846;28;20462;-66
2022/09/16 05:10:12;;;;;;;10.43;6.10;;;17.50;99.90;;;;;;4995465;28;20415;-65
2022/09/16 05:12:38;;;;;;;11.73;6.40;;;17.50;99.90;;;;;;4994530;28;20683;-65
2022/09/16 05:15:04;;;;;;;8.00;5.77;;;17.50;99.90;;;;;;4995154;28;20287;-66
2022/09/16 05:17:30;;;;;;;9.00;6.37;;;17.50;99.90;;;;;;4996034;28;20255;-66
2022/09/16 05:19:56;;;;;;;8.80;5.70;;;17.50;99.90;;;;;;4994555;28;20567;-66
2022/09/16 05:22:22;;;;;;;7.13;6.13;;;17.40;99.90;;;;;;4994774;28;20212;-66
2022/09/16 05:24:48;;;;;;;10.93;5.93;;;17.40;99.90;;;;;;4995030;28;20491;-66
2022/09/16 05:27:15;;;;;;;10.03;5.70;;;17.40;99.90;;;;;;4981128;28;20491;-67
2022/09/16 05:29:41;;;;;;;6.50;5.40;;;17.40;99.90;;;;;;4996889;28;20438;-67
2022/09/16 05:32:07;;;;;;;8.53;6.10;;;17.30;99.90;;;;;;4997618;28;20420;-67
2022/09/16 05:34:34;;;;;;;5.80;5.20;;;17.30;99.90;;;;;;4997320;28;20201;-66
2022/09/16 05:37:00;;;;;;;7.17;5.03;;;17.20;99.90;;;;;;4997276;28;20181;-66
2022/09/16 05:39:26;;;;;;;5.80;5.20;;;17.20;99.90;;;;;;4995071;28;20413;-66
2022/09/16 05:41:56;;;;;;;6.53;5.37;;;17.20;99.90;;;;;;4993400;28;20213;-66
2022/09/16 05:44:23;;;;;;;6.20;4.60;;;17.20;99.90;;;;;;4976435;28;20208;-66
2022/09/16 05:46:48;;;;;;;8.17;4.60;;;17.20;99.90;;;;;;5001482;28;20463;-66
2022/09/16 05:49:19;;;;;;;6.90;5.13;;;17.20;99.90;;;;;;4986161;28;20865;-67
2022/09/16 05:51:45;;;;;;;9.50;5.10;;;17.10;99.90;;;;;;5001156;28;20264;-67
2022/09/16 05:54:12;;;;;;;7.30;5.03;;;17.10;99.90;;;;;;4996001;28;20468;-67
2022/09/16 05:56:38;;;;;;;6.70;5.40;;;17.10;99.90;;;;;;4977664;28;20452;-67
2022/09/16 05:59:04;;;;;;;7.93;5.27;;;17.10;99.90;;;;;;5001045;28;20789;-66
2022/09/16 06:01:34;;;;;;;6.83;4.40;;;17.10;99.90;;;;;;4999404;28;20457;-66
2022/09/16 06:04:02;;;;;;;7.03;4.77;;;17.00;99.90;;;;;;4982266;28;20428;-65
2022/09/16 06:06:36;;;;;;;9.20;5.00;;;17.00;99.90;;;;;;4999955;28;20413;-65
2022/09/16 06:09:17;;;;;;;5.37;4.57;;;17.00;99.90;;;;;;4997254;28;20816;-67
2022/09/16 06:11:47;;;;;;;7.50;5.17;;;17.00;99.90;;;;;;4981264;28;20507;-66
2022/09/16 06:14:13;;;;;;;7.03;4.80;;;16.90;99.90;;;;;;4997577;28;20435;-66
2022/09/16 06:16:39;;;;;;;5.23;4.27;;;16.90;99.90;;;;;;4998384;28;20444;-66
2022/09/16 06:19:09;;;;;;;9.40;5.50;;;16.90;99.90;;;;;;4998436;28;20495;-67
2022/09/16 06:21:36;;;;;;;8.00;5.00;;;16.90;99.90;;;;;;4997153;28;20464;-67
2022/09/16 06:24:02;;;;;;;7.67;4.23;;;16.90;99.90;;;;;;4996338;28;20460;-66
2022/09/16 06:26:28;;;;;;;7.87;5.07;;;16.80;99.90;;;;;;5003196;28;20486;-66
2022/09/16 06:28:54;;;;;;;9.70;4.67;;;16.80;99.90;;;;;;4998989;28;20422;-67
2022/09/16 06:31:23;;;;;;;4.90;4.23;;;16.80;99.90;;;;;;4997440;28;20423;-66
2022/09/16 06:33:49;;;;;;;5.70;4.33;;;16.80;99.90;;;;;;4995668;28;20420;-66
2022/09/16 06:36:24;;;;;;;8.30;4.83;;;16.80;99.90;;;;;;4998316;28;20432;-66
2022/09/16 06:38:50;;;;;;;9.13;6.57;;;16.80;99.90;;;;;;4994547;28;20420;-66
2022/09/16 06:41:17;;;;;;;9.97;5.60;;;16.70;99.90;;;;;;4998555;28;20515;-67
2022/09/16 06:43:44;;;;;;;7.10;5.60;;;16.70;99.90;;;;;;4980499;28;20817;-66
2022/09/16 06:46:18;;;;;;;10.33;5.83;;;16.70;99.90;;;;;;4999136;28;20437;-67
2022/09/16 06:48:46;;;;;;;10.00;5.50;;;16.70;99.90;;;;;;4982868;28;20520;-66
2022/09/16 06:51:15;;;;;;;5.50;5.00;;;16.70;99.90;;;;;;4997911;28;20472;-67
2022/09/16 06:53:41;;;;;;;7.63;6.10;;;16.80;99.90;;;;;;4996990;28;20519;-66
2022/09/16 06:56:12;;;;;;;7.00;5.93;;;16.70;99.90;;;;;;4997940;28;20854;-66
2022/09/16 06:58:40;;;;;;;9.17;6.50;;;16.70;99.90;;;;;;4999992;28;20420;-66
2022/09/16 07:01:14;;;;;;;7.50;5.47;;;16.80;99.90;;;;;;4995337;28;20988;-67
2022/09/16 07:03:45;;;;;;;8.63;5.80;;;16.70;99.90;;;;;;4980755;28;20423;-67
2022/09/16 07:06:12;;;;;;;6.87;5.83;;;16.60;99.90;;;;;;4997503;28;21137;-66
2022/09/16 07:08:38;;;;;;;7.73;5.70;;;16.50;99.90;;;;;;4998476;28;20900;-66
2022/09/16 07:11:15;;;;;;;9.90;6.27;;;16.60;99.90;;;;;;4997202;28;20472;-67
2022/09/16 07:13:42;;;;;;;12.83;6.27;;;16.70;99.90;;;;;;4991466;28;20200;-67
2022/09/16 07:16:10;;;;;;;6.33;5.53;;;16.70;99.90;;;;;;4996978;28;20436;-67
2022/09/16 07:18:36;;;;;;;10.30;6.40;;;16.80;99.90;;;;;;4995900;28;20432;-65
2022/09/16 07:21:17;;;;;;;8.83;6.20;;;16.80;99.90;;;;;;4996417;28;20460;-66
2022/09/16 07:23:44;;;;;;;11.37;6.30;;;16.80;99.90;;;;;;4998010;28;20247;-66
2022/09/16 07:26:18;;;;;;;8.07;6.60;;;16.80;99.90;;;;;;4980430;28;20951;-66
2022/09/16 07:28:46;;;;;;;7.53;6.40;;;16.70;99.90;;;;;;4998320;28;20872;-66
2022/09/16 07:31:15;;;;;;;12.30;6.80;;;16.70;99.90;;;;;;4978616;28;20438;-66
2022/09/16 07:33:44;;;;;;;11.83;7.90;;;16.80;99.90;;;;;;4994148;28;20455;-66
2022/09/16 07:36:11;;;;;;;10.20;7.60;;;16.90;99.90;;;;;;4995150;28;20440;-66
2022/09/16 07:38:37;;;;;;;12.23;6.53;;;17.00;99.90;;;;;;4997019;28;20527;-66
2022/09/16 07:41:23;;;;;;;7.50;6.33;;;17.00;99.90;;;;;;4997624;28;20479;-68
2022/09/16 07:43:49;;;;;;;9.87;6.13;;;17.00;99.90;;;;;;4998206;28;20178;-66
2022/09/16 07:46:16;;;;;;;8.10;6.13;;;17.10;99.90;;;;;;4996475;28;20424;-66
2022/09/16 07:48:44;;;;;;;8.63;6.27;;;17.10;99.90;;;;;;4997632;28;20498;-66
2022/09/16 07:51:14;;;;;;;11.00;6.00;;;17.10;99.90;;;;;;4996234;28;20436;-66
2022/09/16 07:53:40;;;;;;;12.30;7.00;;;17.10;99.90;;;;;;4993274;28;20855;-66
2022/09/16 07:56:09;;;;;;;8.00;6.37;;;17.10;99.90;;;;;;4994814;28;20456;-66
2022/09/16 07:58:37;;;;;;;9.10;7.47;;;17.10;99.90;;;;;;4997155;28;20206;-66
2022/09/16 08:01:03;;;;;;;8.40;6.20;;;17.10;99.90;;;;;;4998102;28;20815;-65
2022/09/16 08:03:28;;;;;;;11.93;6.10;;;17.10;99.90;;;;;;4998597;28;20419;-65
2022/09/16 08:06:00;;;;;;;8.53;5.83;;;17.10;99.90;;;;;;4999236;28;20509;-68
2022/09/16 08:08:25;;;;;;;7.90;6.13;;;17.20;99.90;;;;;;4996111;28;20226;-66
2022/09/16 08:10:55;;;;;;;7.47;5.60;;;17.20;99.90;;;;;;4995706;28;20803;-66
2022/09/16 08:13:21;;;;;;;7.60;5.67;;;17.10;99.90;;;;;;4993962;28;20189;-66
2022/09/16 08:15:47;;;;;;;7.57;6.77;;;17.00;99.90;;;;;;4995643;28;20449;-67
2022/09/16 08:18:12;;;;;;;7.57;6.30;;;17.00;99.90;;;;;;4998252;28;20448;-67
2022/09/16 08:20:38;;;;;;;7.97;7.17;;;16.90;99.90;;;;;;4998013;28;20185;-67
2022/09/16 08:23:03;;;;;;;7.13;6.43;;;17.00;99.90;;;;;;4971506;28;20192;-65
2022/09/16 08:25:29;;;;;;;11.73;6.33;;;16.90;99.90;;;;;;4998824;28;20238;-65
2022/09/16 08:27:54;;;;;;;7.03;5.33;;;16.90;99.90;;;;;;4999938;28;20189;-66
2022/09/16 08:30:20;;;;;;;8.03;5.50;;;17.00;99.90;;;;;;4995767;28;20182;-66
2022/09/16 08:32:46;;;;;;;9.23;5.93;;;16.90;99.90;;;;;;4993570;28;20190;-66
2022/09/16 08:35:13;;;;;;;7.90;5.90;;;17.00;99.90;;;;;;4995952;28;20232;-67
2022/09/16 08:37:39;;;;;;;8.23;5.50;;;17.00;99.90;;;;;;4979139;28;20596;-67
2022/09/16 08:40:05;;;;;;;7.37;5.93;;;16.90;99.90;;;;;;4997412;28;20424;-67
2022/09/16 08:42:56;;;;;;;8.70;5.30;;;17.00;99.90;;;;;;4995850;28;20206;-67
2022/09/16 08:45:30;;;;;;;5.20;4.40;;;16.90;99.90;;;;;;4996310;28;20519;-67
2022/09/16 08:48:30;;;;;;;6.87;4.50;;;17.00;99.90;;;;;;4997614;28;20454;-66
2022/09/16 08:50:59;;;;;;;4.93;4.40;;;16.80;99.90;;;;;;4998014;28;20450;-66
2022/09/16 08:53:41;;;;;;;8.43;5.27;;;16.80;99.90;;;;;;4996261;28;20489;-65
2022/09/16 08:56:11;;;;;;;7.37;5.70;;;16.80;99.90;;;;;;4993727;28;20962;-66
2022/09/16 08:58:44;;;;;;;11.00;5.60;;;16.80;99.90;;;;;;5000081;28;20428;-67
2022/09/16 09:01:32;;;;;;;7.97;5.53;;;16.80;99.90;;;;;;4995050;28;20472;-67
2022/09/16 09:03:57;;;;;;;9.37;5.97;;;16.80;99.90;;;;;;4996792;28;20738;-67
2022/09/16 09:06:47;;;;;;;8.63;6.23;;;16.80;99.90;;;;;;4993096;28;20617;-68
2022/09/16 09:09:50;;;;;;;7.20;5.37;;;16.80;99.90;;;;;;4996255;28;20296;-68
2022/09/16 09:12:45;;;;;;;6.37;4.90;;;16.80;99.90;;;;;;4995659;28;20716;-66
2022/09/16 09:15:41;;;;;;;7.07;5.70;;;16.60;99.90;;;;;;4992944;28;20450;-67
2022/09/16 09:18:07;;;;;;;9.47;5.70;;;16.60;99.90;;;;;;4989934;28;21195;-67
2022/09/16 09:20:32;;;;;;;9.13;5.87;;;16.70;99.90;;;;;;5000951;28;20435;-66
2022/09/16 09:23:19;;;;;;;9.70;6.47;;;16.80;99.90;;;;;;4999461;28;20482;-67
2022/09/16 09:25:56;;;;;;;7.63;6.63;;;16.80;99.90;;;;;;4997764;28;20587;-66
2022/09/16 09:28:43;;;;;;;9.60;6.23;;;16.80;99.90;;;;;;4996984;28;20435;-66
2022/09/16 09:31:30;;;;;;;8.97;6.20;;;16.80;99.90;;;;;;5000160;28;20443;-66
2022/09/16 09:34:33;;;;;;;7.87;5.90;;;16.80;99.90;;;;;;4998916;28;20428;-66
2022/09/16 09:37:02;;;;;;;9.67;6.70;;;16.90;99.90;;;;;;4998240;28;20435;-66
2022/09/16 09:40:08;;;;;;;8.80;6.60;;;16.80;99.90;;;;;;4980737;28;20804;-66
2022/09/16 09:43:00;;;;;;;8.43;7.23;;;16.90;99.90;;;;;;4998321;28;20468;-66
2022/09/16 09:45:32;;;;;;;9.40;6.50;;;16.90;99.90;;;;;;4985634;28;20440;-66
2022/09/16 09:48:17;;;;;;;9.43;6.53;;;16.90;99.90;;;;;;5003370;28;20412;-66
2022/09/16 09:50:47;;;;;;;10.70;6.13;;;16.80;99.90;;;;;;4995172;28;20804;-66
2022/09/16 09:53:33;;;;;;;9.50;6.00;;;16.80;99.90;;;;;;4997531;28;20487;-66
2022/09/16 09:56:20;;;;;;;6.17;5.57;;;16.70;99.90;;;;;;4997585;28;20460;-66
2022/09/16 09:59:28;;;;;;;17.13;7.17;;;16.80;99.90;;;;;;5000827;28;20926;-65
2022/09/16 10:01:56;;;;;;;8.10;6.70;;;16.70;99.90;;;;;;4919873;29;20929;-67
2022/09/16 10:04:22;;;;;;;8.20;5.90;;;16.70;99.90;;;;;;4917326;29;20448;-66
2022/09/16 10:06:50;;;;;;;8.00;6.17;;;16.70;99.90;;;;;;4956605;28;20711;-66
2022/09/16 10:09:17;;;;;;;7.53;6.70;;;16.70;99.90;;;;;;4998457;28;20668;-65
2022/09/16 10:11:54;;;;;;;7.07;6.37;;;16.70;99.90;;;;;;4996159;28;20436;-65
2022/09/16 10:14:34;;;;;;;13.67;7.70;;;16.80;99.90;;;;;;4994576;28;20771;-66
2022/09/16 10:17:02;;;;;;;7.13;6.43;;;16.70;99.90;;;;;;4998908;28;20466;-66
2022/09/16 10:19:30;;;;;;;9.13;7.10;;;16.80;99.90;;;;;;5001324;28;20459;-67
2022/09/16 10:22:18;;;;;;;9.93;6.53;;;16.80;99.90;;;;;;5001589;28;20914;-66
2022/09/16 10:25:00;;;;;;;7.00;6.10;;;16.80;99.90;;;;;;4998526;28;20472;-66
2022/09/16 10:27:36;;;;;;;10.50;6.13;;;16.90;99.90;;;;;;4997333;28;20412;-66
2022/09/16 10:30:11;;;;;;;11.00;6.30;;;16.90;99.90;;;;;;5001414;28;20929;-66
2022/09/16 10:32:50;;;;;;;15.93;6.93;;;16.90;99.90;;;;;;4997446;28;20429;-66
2022/09/16 10:35:27;;;;;;;9.93;6.07;;;16.90;99.90;;;;;;4979622;28;21012;-67
2022/09/16 10:37:58;;;;;;;7.83;5.67;;;17.10;99.90;;;;;;4995365;28;20507;-67
2022/09/16 10:40:25;;;;;;;9.30;5.87;;;17.30;99.90;;;;;;4999956;28;20538;-67
2022/09/16 10:42:55;;;;;;;7.47;6.57;;;17.40;99.90;;;;;;5002268;28;20932;-66
2022/09/16 10:45:35;;;;;;;9.00;6.23;;;17.50;99.90;;;;;;5000970;28;20870;-67
2022/09/16 10:48:19;;;;;;;10.20;5.97;;;17.80;99.90;;;;;;4999671;28;20451;-67
2022/09/16 10:51:24;;;;;;;7.23;5.03;;;18.00;99.90;;;;;;4998320;28;20432;-67
2022/09/16 10:53:58;;;;;;;8.53;5.10;;;18.00;99.90;;;;;;4982282;28;20443;-66
2022/09/16 10:56:30;;;;;;;5.73;5.13;;;18.10;99.90;;;;;;4996576;28;20862;-66
2022/09/16 10:59:12;;;;;;;6.10;5.50;;;18.10;99.90;;;;;;5001861;28;20421;-66
2022/09/16 11:02:20;;;;;;;10.20;5.47;;;18.20;99.90;;;;;;4997873;28;20947;-66
2022/09/16 11:05:03;;;;;;;10.13;5.77;;;18.20;99.90;;;;;;4994528;28;20451;-66
2022/09/16 11:07:44;;;;;;;13.30;5.63;;;18.10;99.90;;;;;;4981519;28;20423;-66
2022/09/16 11:10:17;;;;;;;7.90;5.90;;;17.90;99.90;;;;;;4996561;28;20547;-66
2022/09/16 11:12:48;;;;;;;5.83;5.23;;;18.10;99.90;;;;;;5000162;28;20487;-67
2022/09/16 11:15:46;;;;;;;6.77;5.03;;;18.20;99.90;;;;;;4997043;28;20440;-66
2022/09/16 11:18:20;;;;;;;7.80;5.03;;;18.30;99.90;;;;;;4995914;28;20448;-65
2022/09/16 11:21:12;;;;;;;5.10;4.40;;;18.40;99.90;;;;;;5000857;28;20421;-66
2022/09/16 11:23:56;;;;;;;7.13;3.87;;;18.50;99.90;;;;;;4992452;28;20488;-66
2022/09/16 11:26:32;;;;;;;6.07;3.70;;;18.50;99.90;;;;;;4998520;28;20596;-66
2022/09/16 11:29:34;;;;;;;7.03;4.43;;;18.60;99.90;;;;;;4996872;28;20420;-67
2022/09/16 11:32:18;;;;;;;6.43;4.10;;;18.70;99.90;;;;;;4994939;28;20520;-66
2022/09/16 11:34:58;;;;;;;7.83;4.43;;;18.80;99.90;;;;;;4996427;28;20453;-67
2022/09/16 11:37:43;;;;;;;5.80;3.97;;;18.70;99.90;;;;;;4993370;28;20885;-66
2022/09/16 11:40:32;;;;;;;5.57;3.13;;;18.70;99.90;;;;;;4980671;28;20448;-66
2022/09/16 11:43:21;;;;;;;5.90;3.00;;;18.90;99.90;;;;;;4993983;28;21042;-66
2022/09/16 11:45:51;;;;;;;5.20;3.07;;;19.20;99.90;;;;;;4988623;28;20470;-67
2022/09/16 11:48:30;;;;;;;4.63;2.60;;;19.20;99.90;;;;;;5000737;28;20428;-67
2022/09/16 11:51:27;;;;;;;3.93;2.43;;;19.30;99.90;;;;;;4977346;28;20446;-66
2022/09/16 11:54:21;;;;;;;6.53;2.90;;;19.50;99.90;;;;;;4999575;28;20523;-67
2022/09/16 11:56:51;;;;;;;5.37;2.27;;;19.70;99.90;;;;;;4996151;28;20425;-67
2022/09/16 11:59:25;;;;;;;3.67;2.10;;;19.90;99.90;;;;;;4998958;28;20706;-66
2022/09/16 12:01:58;;;;;;;2.57;2.07;;;20.30;99.90;;;;;;4997562;28;20490;-67
2022/09/16 12:04:41;;;;;;;3.20;2.00;;;20.70;99.90;;;;;;4995938;28;20444;-67
2022/09/16 12:07:18;;;;;;;3.77;2.40;;;20.90;99.90;;;;;;4994656;28;20753;-68
2022/09/16 12:09:53;;;;;;;4.70;2.50;;;21.00;99.90;;;;;;4999911;28;20510;-67
2022/09/16 12:12:27;;;;;;;2.70;2.10;;;21.10;99.90;;;;;;4992985;28;20432;-67
2022/09/16 12:14:58;;;;;;;2.83;2.30;;;21.00;99.90;;;;;;4996982;28;20446;-67
2022/09/16 12:17:32;;;;;;;3.20;2.30;;;20.80;99.90;;;;;;4998350;28;20454;-67
2022/09/16 12:20:18;;;;;;;4.40;2.50;;;20.80;99.90;;;;;;4994559;28;20424;-67
2022/09/16 12:22:46;;;;;;;4.60;2.80;;;20.60;99.90;;;;;;4994124;28;20469;-67
2022/09/16 12:25:38;;;;;;;3.23;2.50;;;20.50;99.90;;;;;;4996193;28;20459;-67
2022/09/16 12:28:24;;;;;;;2.83;2.30;;;20.90;99.90;;;;;;4985872;28;20428;-67
2022/09/16 12:31:07;;;;;;;3.83;3.10;;;21.30;99.90;;;;;;4999537;28;20511;-67
2022/09/16 12:33:42;;;;;;;2.33;2.13;;;21.60;99.90;;;;;;4995621;28;20425;-67
2022/09/16 12:36:11;;;;;;;4.80;2.47;;;21.80;99.90;;;;;;4993082;28;20444;-66
2022/09/16 12:38:38;;;;;;;3.70;2.20;;;21.60;99.90;;;;;;4996804;28;20428;-66
2022/09/16 12:41:29;;;;;;;3.33;2.40;;;21.10;99.90;;;;;;4996603;28;20515;-66
2022/09/16 12:44:38;;;;;;;4.27;2.40;;;21.00;99.90;;;;;;4995417;28;20681;-67
2022/09/16 12:47:35;;;;;;;3.53;2.00;;;20.70;99.90;;;;;;4939728;28;21121;-68
2022/09/16 12:50:46;;;;;;;2.90;1.67;;;20.50;99.90;;;;;;4999529;28;20496;-66
2022/09/16 12:53:36;;;;;;;3.03;2.20;;;20.00;99.90;;;;;;4993450;28;20430;-67
2022/09/16 12:56:10;;;;;;;6.33;2.53;;;19.70;99.90;;;;;;4996391;28;20824;-67
2022/09/16 12:58:47;;;;;;;7.30;2.37;;;19.60;99.90;;;;;;5000751;28;20450;-66
2022/09/16 13:01:34;;;;;;;2.40;2.00;;;19.60;99.90;;;;;;4999423;28;20463;-67
2022/09/16 13:04:20;;;;;;;9.20;3.83;;;19.60;99.90;;;;;;5001274;28;20436;-66
2022/09/16 13:06:51;;;;;;;4.60;2.07;;;19.40;99.90;;;;;;5000863;28;20407;-66
2022/09/16 13:09:21;;;;;;;3.33;2.23;;;19.30;99.90;;;;;;5000515;28;20447;-66
2022/09/16 13:12:02;;;;;;;5.00;2.47;;;19.10;99.90;;;;;;4997731;28;20697;-67
2022/09/16 13:14:31;;;;;;;3.63;2.40;;;18.80;99.90;;;;;;4999134;28;20439;-66
2022/09/16 13:16:59;;;;;;;3.57;2.43;;;18.90;99.90;;;;;;5000838;28;20447;-67
2022/09/16 13:19:38;;;;;;;3.80;2.40;;;19.00;99.90;;;;;;4984157;28;20452;-66